sensor_id;sensor_type;location;lat;lon;timestamp;pressure;altitude;pressure_sealevel;temperature
15170;BMP280;7685;47.406;8.540;2024-01-30T00:00:24;97754.97;;;4.24
15170;BMP280;7685;47.406;8.540;2024-01-30T00:02:51;97746.09;;;4.16
15170;BMP280;7685;47.406;8.540;2024-01-30T00:05:17;97738.69;;;4.20
15170;BMP280;7685;47.406;8.540;2024-01-30T00:07:44;97742.03;;;4.20
15170;BMP280;7685;47.406;8.540;2024-01-30T00:10:11;97740.84;;;4.21
15170;BMP280;7685;47.406;8.540;2024-01-30T00:12:37;97740.84;;;4.21
15170;BMP280;7685;47.406;8.540;2024-01-30T00:15:04;97737.03;;;4.17
15170;BMP280;7685;47.406;8.540;2024-01-30T00:17:31;97731.72;;;4.11
15170;BMP280;7685;47.406;8.540;2024-01-30T00:19:57;97732.41;;;4.06
15170;BMP280;7685;47.406;8.540;2024-01-30T00:22:24;97733.88;;;4.07
15170;BMP280;7685;47.406;8.540;2024-01-30T00:24:50;97735.75;;;4.06
15170;BMP280;7685;47.406;8.540;2024-01-30T00:27:16;97732.19;;;4.10
15170;BMP280;7685;47.406;8.540;2024-01-30T00:29:43;97735.09;;;4.12
15170;BMP280;7685;47.406;8.540;2024-01-30T00:32:09;97735.34;;;4.14
15170;BMP280;7685;47.406;8.540;2024-01-30T00:34:36;97740.56;;;4.19
15170;BMP280;7685;47.406;8.540;2024-01-30T00:37:03;97739.84;;;4.19
15170;BMP280;7685;47.406;8.540;2024-01-30T00:39:29;97735.84;;;4.23
15170;BMP280;7685;47.406;8.540;2024-01-30T00:41:55;97743.00;;;4.28
15170;BMP280;7685;47.406;8.540;2024-01-30T00:44:23;97740.16;;;4.26
15170;BMP280;7685;47.406;8.540;2024-01-30T00:46:49;97741.31;;;4.25
15170;BMP280;7685;47.406;8.540;2024-01-30T00:49:15;97739.41;;;4.20
15170;BMP280;7685;47.406;8.540;2024-01-30T00:51:42;97738.91;;;4.16
15170;BMP280;7685;47.406;8.540;2024-01-30T00:54:09;97746.56;;;4.14
15170;BMP280;7685;47.406;8.540;2024-01-30T00:56:35;97740.34;;;4.12
15170;BMP280;7685;47.406;8.540;2024-01-30T00:59:02;97742.22;;;4.05
15170;BMP280;7685;47.406;8.540;2024-01-30T01:01:28;97738.63;;;4.03
15170;BMP280;7685;47.406;8.540;2024-01-30T01:03:55;97741.94;;;3.98
15170;BMP280;7685;47.406;8.540;2024-01-30T01:06:22;97739.09;;;3.96
15170;BMP280;7685;47.406;8.540;2024-01-30T01:08:48;97740.50;;;3.91
15170;BMP280;7685;47.406;8.540;2024-01-30T01:11:15;97738.09;;;3.88
15170;BMP280;7685;47.406;8.540;2024-01-30T01:13:41;97742.16;;;3.89
15170;BMP280;7685;47.406;8.540;2024-01-30T01:16:08;97738.31;;;3.84
15170;BMP280;7685;47.406;8.540;2024-01-30T01:18:34;97740.72;;;3.88
15170;BMP280;7685;47.406;8.540;2024-01-30T01:21:01;97739.28;;;3.87
15170;BMP280;7685;47.406;8.540;2024-01-30T01:23:27;97739.75;;;3.85
15170;BMP280;7685;47.406;8.540;2024-01-30T01:25:54;97739.25;;;3.81
15170;BMP280;7685;47.406;8.540;2024-01-30T01:28:25;97743.53;;;3.78
15170;BMP280;7685;47.406;8.540;2024-01-30T01:30:52;97742.59;;;3.81
15170;BMP280;7685;47.406;8.540;2024-01-30T01:33:19;97743.09;;;3.86
15170;BMP280;7685;47.406;8.540;2024-01-30T01:35:46;97740.00;;;3.87
15170;BMP280;7685;47.406;8.540;2024-01-30T01:38:12;97739.31;;;3.92
15170;BMP280;7685;47.406;8.540;2024-01-30T01:40:39;97739.09;;;3.96
15170;BMP280;7685;47.406;8.540;2024-01-30T01:43:06;97740.28;;;3.95
15170;BMP280;7685;47.406;8.540;2024-01-30T01:45:32;97745.78;;;3.97
15170;BMP280;7685;47.406;8.540;2024-01-30T01:47:59;97739.56;;;4.00
15170;BMP280;7685;47.406;8.540;2024-01-30T01:50:26;97732.41;;;4.00
15170;BMP280;7685;47.406;8.540;2024-01-30T01:52:54;97728.81;;;4.03
15170;BMP280;7685;47.406;8.540;2024-01-30T01:55:21;97726.19;;;3.98
15170;BMP280;7685;47.406;8.540;2024-01-30T01:57:50;97733.13;;;3.95
15170;BMP280;7685;47.406;8.540;2024-01-30T02:00:17;97729.75;;;3.89
15170;BMP280;7685;47.406;8.540;2024-01-30T02:02:46;97731.44;;;3.92
15170;BMP280;7685;47.406;8.540;2024-01-30T02:05:14;97725.91;;;3.90
15170;BMP280;7685;47.406;8.540;2024-01-30T02:07:40;97722.09;;;3.91
15170;BMP280;7685;47.406;8.540;2024-01-30T02:10:10;97727.16;;;3.95
15170;BMP280;7685;47.406;8.540;2024-01-30T02:12:36;97733.84;;;3.96
15170;BMP280;7685;47.406;8.540;2024-01-30T02:15:04;97730.94;;;3.99
15170;BMP280;7685;47.406;8.540;2024-01-30T02:17:31;97735.03;;;4.00
15170;BMP280;7685;47.406;8.540;2024-01-30T02:19:58;97730.75;;;3.97
15170;BMP280;7685;47.406;8.540;2024-01-30T02:22:24;97733.56;;;3.94
15170;BMP280;7685;47.406;8.540;2024-01-30T02:24:51;97732.09;;;3.87
15170;BMP280;7685;47.406;8.540;2024-01-30T02:27:17;97726.34;;;3.83
15170;BMP280;7685;47.406;8.540;2024-01-30T02:29:44;97732.31;;;3.83
15170;BMP280;7685;47.406;8.540;2024-01-30T02:32:11;97731.84;;;3.79
15170;BMP280;7685;47.406;8.540;2024-01-30T02:34:37;97732.78;;;3.76
15170;BMP280;7685;47.406;8.540;2024-01-30T02:37:04;97734.00;;;3.75
15170;BMP280;7685;47.406;8.540;2024-01-30T02:39:30;97727.97;;;3.69
15170;BMP280;7685;47.406;8.540;2024-01-30T02:41:57;97737.56;;;3.72
15170;BMP280;7685;47.406;8.540;2024-01-30T02:44:23;97728.97;;;3.72
15170;BMP280;7685;47.406;8.540;2024-01-30T02:46:50;97741.63;;;3.73
15170;BMP280;7685;47.406;8.540;2024-01-30T02:49:16;97734.44;;;3.68
15170;BMP280;7685;47.406;8.540;2024-01-30T02:51:43;97741.34;;;3.66
15170;BMP280;7685;47.406;8.540;2024-01-30T02:54:09;97729.84;;;3.63
15170;BMP280;7685;47.406;8.540;2024-01-30T02:56:35;97727.69;;;3.62
15170;BMP280;7685;47.406;8.540;2024-01-30T02:59:02;97717.19;;;3.62
15170;BMP280;7685;47.406;8.540;2024-01-30T03:01:29;97721.00;;;3.61
15170;BMP280;7685;47.406;8.540;2024-01-30T03:03:55;97722.44;;;3.62
15170;BMP280;7685;47.406;8.540;2024-01-30T03:06:21;97719.59;;;3.65
15170;BMP280;7685;47.406;8.540;2024-01-30T03:08:49;97708.81;;;3.63
15170;BMP280;7685;47.406;8.540;2024-01-30T03:11:15;97713.59;;;3.65
15170;BMP280;7685;47.406;8.540;2024-01-30T03:13:41;97713.38;;;3.63
15170;BMP280;7685;47.406;8.540;2024-01-30T03:16:08;97709.75;;;3.60
15170;BMP280;7685;47.406;8.540;2024-01-30T03:18:35;97707.81;;;3.55
15170;BMP280;7685;47.406;8.540;2024-01-30T03:21:02;97709.00;;;3.54
15170;BMP280;7685;47.406;8.540;2024-01-30T03:23:28;97710.44;;;3.55
15170;BMP280;7685;47.406;8.540;2024-01-30T03:25:55;97707.09;;;3.54
15170;BMP280;7685;47.406;8.540;2024-01-30T03:28:21;97708.34;;;3.59
15170;BMP280;7685;47.406;8.540;2024-01-30T03:30:48;97709.31;;;3.62
15170;BMP280;7685;47.406;8.540;2024-01-30T03:33:14;97704.25;;;3.58
15170;BMP280;7685;47.406;8.540;2024-01-30T03:35:41;97705.44;;;3.57
15170;BMP280;7685;47.406;8.540;2024-01-30T03:38:07;97702.81;;;3.57
15170;BMP280;7685;47.406;8.540;2024-01-30T03:40:33;97709.28;;;3.56
15170;BMP280;7685;47.406;8.540;2024-01-30T03:43:00;97704.00;;;3.56
15170;BMP280;7685;47.406;8.540;2024-01-30T03:45:26;97711.91;;;3.56
15170;BMP280;7685;47.406;8.540;2024-01-30T03:47:52;97715.25;;;3.56
15170;BMP280;7685;47.406;8.540;2024-01-30T03:50:19;97722.63;;;3.58
15170;BMP280;7685;47.406;8.540;2024-01-30T03:52:46;97714.31;;;3.60
15170;BMP280;7685;47.406;8.540;2024-01-30T03:55:12;97709.28;;;3.56
15170;BMP280;7685;47.406;8.540;2024-01-30T03:57:39;97716.19;;;3.53
15170;BMP280;7685;47.406;8.540;2024-01-30T04:00:06;97722.41;;;3.56
15170;BMP280;7685;47.406;8.540;2024-01-30T04:02:33;97712.81;;;3.53
15170;BMP280;7685;47.406;8.540;2024-01-30T04:04:59;97719.03;;;3.50
15170;BMP280;7685;47.406;8.540;2024-01-30T04:07:26;97712.34;;;3.49
15170;BMP280;7685;47.406;8.540;2024-01-30T04:09:52;97714.00;;;3.46
15170;BMP280;7685;47.406;8.540;2024-01-30T04:12:19;97719.00;;;3.44
15170;BMP280;7685;47.406;8.540;2024-01-30T04:14:45;97722.81;;;3.43
15170;BMP280;7685;47.406;8.540;2024-01-30T04:17:12;97726.44;;;3.46
15170;BMP280;7685;47.406;8.540;2024-01-30T04:19:39;97719.97;;;3.47
15170;BMP280;7685;47.406;8.540;2024-01-30T04:22:06;97720.69;;;3.47
15170;BMP280;7685;47.406;8.540;2024-01-30T04:24:33;97722.13;;;3.48
15170;BMP280;7685;47.406;8.540;2024-01-30T04:26:59;97720.44;;;3.51
15170;BMP280;7685;47.406;8.540;2024-01-30T04:29:26;97723.78;;;3.51
15170;BMP280;7685;47.406;8.540;2024-01-30T04:31:52;97726.94;;;3.50
15170;BMP280;7685;47.406;8.540;2024-01-30T04:34:18;97718.34;;;3.49
15170;BMP280;7685;47.406;8.540;2024-01-30T04:36:45;97724.06;;;3.53
15170;BMP280;7685;47.406;8.540;2024-01-30T04:39:12;97718.34;;;3.49
15170;BMP280;7685;47.406;8.540;2024-01-30T04:41:39;97728.59;;;3.53
15170;BMP280;7685;47.406;8.540;2024-01-30T04:44:06;97725.72;;;3.51
15170;BMP280;7685;47.406;8.540;2024-01-30T04:46:33;97724.75;;;3.48
15170;BMP280;7685;47.406;8.540;2024-01-30T04:49:00;97728.56;;;3.47
15170;BMP280;7685;47.406;8.540;2024-01-30T04:51:27;97725.50;;;3.49
15170;BMP280;7685;47.406;8.540;2024-01-30T04:53:53;97721.41;;;3.48
15170;BMP280;7685;47.406;8.540;2024-01-30T04:56:19;97716.63;;;3.46
15170;BMP280;7685;47.406;8.540;2024-01-30T04:58:46;97715.44;;;3.47
15170;BMP280;7685;47.406;8.540;2024-01-30T05:01:16;97719.97;;;3.47
15170;BMP280;7685;47.406;8.540;2024-01-30T05:03:43;97715.19;;;3.45
15170;BMP280;7685;47.406;8.540;2024-01-30T05:06:10;97722.09;;;3.43
15170;BMP280;7685;47.406;8.540;2024-01-30T05:08:36;97727.59;;;3.45
15170;BMP280;7685;47.406;8.540;2024-01-30T05:11:05;97726.44;;;3.46
15170;BMP280;7685;47.406;8.540;2024-01-30T05:13:31;97727.09;;;3.41
15170;BMP280;7685;47.406;8.540;2024-01-30T05:15:58;97739.31;;;3.44
15170;BMP280;7685;47.406;8.540;2024-01-30T05:18:24;97731.16;;;3.42
15170;BMP280;7685;47.406;8.540;2024-01-30T05:20:51;97734.97;;;3.41
15170;BMP280;7685;47.406;8.540;2024-01-30T05:23:18;97733.28;;;3.38
15170;BMP280;7685;47.406;8.540;2024-01-30T05:25:44;97739.72;;;3.37
15170;BMP280;7685;47.406;8.540;2024-01-30T05:28:10;97735.41;;;3.33
15170;BMP280;7685;47.406;8.540;2024-01-30T05:30:37;97736.34;;;3.30
15170;BMP280;7685;47.406;8.540;2024-01-30T05:33:03;97746.63;;;3.34
15170;BMP280;7685;47.406;8.540;2024-01-30T05:35:30;97742.03;;;3.29
15170;BMP280;7685;47.406;8.540;2024-01-30T05:37:57;97744.94;;;3.31
15170;BMP280;7685;47.406;8.540;2024-01-30T05:40:24;97747.56;;;3.31
15170;BMP280;7685;47.406;8.540;2024-01-30T05:42:50;97752.81;;;3.31
15170;BMP280;7685;47.406;8.540;2024-01-30T05:45:17;97751.88;;;3.34
15170;BMP280;7685;47.406;8.540;2024-01-30T05:47:43;97752.34;;;3.32
15170;BMP280;7685;47.406;8.540;2024-01-30T05:50:09;97741.13;;;3.32
15170;BMP280;7685;47.406;8.540;2024-01-30T05:52:36;97743.28;;;3.33
15170;BMP280;7685;47.406;8.540;2024-01-30T05:55:02;97745.66;;;3.31
15170;BMP280;7685;47.406;8.540;2024-01-30T05:57:29;97740.88;;;3.30
15170;BMP280;7685;47.406;8.540;2024-01-30T05:59:56;97752.09;;;3.30
15170;BMP280;7685;47.406;8.540;2024-01-30T06:02:22;97756.44;;;3.33
15170;BMP280;7685;47.406;8.540;2024-01-30T06:04:49;97747.56;;;3.31
15170;BMP280;7685;47.406;8.540;2024-01-30T06:07:15;97745.66;;;3.31
15170;BMP280;7685;47.406;8.540;2024-01-30T06:09:44;97760.44;;;3.29
15170;BMP280;7685;47.406;8.540;2024-01-30T06:12:12;97751.59;;;3.26
15170;BMP280;7685;47.406;8.540;2024-01-30T06:14:38;97747.50;;;3.25
15170;BMP280;7685;47.406;8.540;2024-01-30T06:17:06;97753.03;;;3.27
15170;BMP280;7685;47.406;8.540;2024-01-30T06:19:32;97759.47;;;3.26
15170;BMP280;7685;47.406;8.540;2024-01-30T06:22:00;97760.19;;;3.27
15170;BMP280;7685;47.406;8.540;2024-01-30T06:24:26;97758.53;;;3.24
15170;BMP280;7685;47.406;8.540;2024-01-30T06:26:53;97761.34;;;3.26
15170;BMP280;7685;47.406;8.540;2024-01-30T06:29:20;97754.19;;;3.21
15170;BMP280;7685;47.406;8.540;2024-01-30T06:31:47;97758.97;;;3.22
15170;BMP280;7685;47.406;8.540;2024-01-30T06:34:14;97759.69;;;3.23
15170;BMP280;7685;47.406;8.540;2024-01-30T06:36:40;97764.50;;;3.24
15170;BMP280;7685;47.406;8.540;2024-01-30T06:39:07;97758.25;;;3.22
15170;BMP280;7685;47.406;8.540;2024-01-30T06:41:34;97758.19;;;3.16
15170;BMP280;7685;47.406;8.540;2024-01-30T06:44:03;97767.47;;;3.12
15170;BMP280;7685;47.406;8.540;2024-01-30T06:46:35;97772.00;;;3.11
15170;BMP280;7685;47.406;8.540;2024-01-30T06:49:01;97772.94;;;3.08
15170;BMP280;7685;47.406;8.540;2024-01-30T06:51:28;97772.44;;;3.04
15170;BMP280;7685;47.406;8.540;2024-01-30T06:53:54;97763.56;;;3.01
15170;BMP280;7685;47.406;8.540;2024-01-30T06:56:20;97764.28;;;3.02
15170;BMP280;7685;47.406;8.540;2024-01-30T06:58:48;97773.34;;;3.01
15170;BMP280;7685;47.406;8.540;2024-01-30T07:01:15;97773.34;;;3.01
15170;BMP280;7685;47.406;8.540;2024-01-30T07:03:42;97775.78;;;3.04
15170;BMP280;7685;47.406;8.540;2024-01-30T07:06:09;97778.19;;;3.08
15170;BMP280;7685;47.406;8.540;2024-01-30T07:08:39;97774.66;;;3.11
15170;BMP280;7685;47.406;8.540;2024-01-30T07:11:05;97777.72;;;3.09
15170;BMP280;7685;47.406;8.540;2024-01-30T07:13:32;97779.63;;;3.09
15170;BMP280;7685;47.406;8.540;2024-01-30T07:15:59;97782.00;;;3.07
15170;BMP280;7685;47.406;8.540;2024-01-30T07:18:26;97785.88;;;3.12
15170;BMP280;7685;47.406;8.540;2024-01-30T07:20:52;97790.19;;;3.15
15170;BMP280;7685;47.406;8.540;2024-01-30T07:23:18;97784.47;;;3.16
15170;BMP280;7685;47.406;8.540;2024-01-30T07:25:45;97786.38;;;3.16
15170;BMP280;7685;47.406;8.540;2024-01-30T07:28:14;97786.63;;;3.18
15170;BMP280;7685;47.406;8.540;2024-01-30T07:30:43;97785.72;;;3.21
15170;BMP280;7685;47.406;8.540;2024-01-30T07:33:10;97788.06;;;3.19
15170;BMP280;7685;47.406;8.540;2024-01-30T07:35:36;97790.97;;;3.21
15170;BMP280;7685;47.406;8.540;2024-01-30T07:38:03;97800.53;;;3.24
15170;BMP280;7685;47.406;8.540;2024-01-30T07:40:31;97798.63;;;3.24
15170;BMP280;7685;47.406;8.540;2024-01-30T07:42:59;97795.31;;;3.29
15170;BMP280;7685;47.406;8.540;2024-01-30T07:45:27;97798.44;;;3.33
15170;BMP280;7685;47.406;8.540;2024-01-30T07:47:58;97803.94;;;3.36
15170;BMP280;7685;47.406;8.540;2024-01-30T07:50:26;97804.22;;;3.38
15170;BMP280;7685;47.406;8.540;2024-01-30T07:52:53;97800.38;;;3.39
15170;BMP280;7685;47.406;8.540;2024-01-30T07:55:21;97800.88;;;3.37
15170;BMP280;7685;47.406;8.540;2024-01-30T07:57:54;97807.75;;;3.34
15170;BMP280;7685;47.406;8.540;2024-01-30T08:00:21;97806.78;;;3.32
15170;BMP280;7685;47.406;8.540;2024-01-30T08:02:48;97807.00;;;3.28
15170;BMP280;7685;47.406;8.540;2024-01-30T08:05:15;97804.84;;;3.27
15170;BMP280;7685;47.406;8.540;2024-01-30T08:07:41;97805.28;;;3.25
15170;BMP280;7685;47.406;8.540;2024-01-30T08:10:14;97808.44;;;3.29
15170;BMP280;7685;47.406;8.540;2024-01-30T08:12:41;97819.19;;;3.31
15170;BMP280;7685;47.406;8.540;2024-01-30T08:15:07;97814.22;;;3.33
15170;BMP280;7685;47.406;8.540;2024-01-30T08:17:34;97816.16;;;3.39
15170;BMP280;7685;47.406;8.540;2024-01-30T08:20:00;97819.03;;;3.41
15170;BMP280;7685;47.406;8.540;2024-01-30T08:22:27;97816.22;;;3.44
15170;BMP280;7685;47.406;8.540;2024-01-30T08:24:54;97821.25;;;3.48
15170;BMP280;7685;47.406;8.540;2024-01-30T08:27:20;97817.66;;;3.51
15170;BMP280;7685;47.406;8.540;2024-01-30T08:29:47;97823.63;;;3.51
15170;BMP280;7685;47.406;8.540;2024-01-30T08:32:13;97824.16;;;3.55
15170;BMP280;7685;47.406;8.540;2024-01-30T08:34:40;97829.16;;;3.53
15170;BMP280;7685;47.406;8.540;2024-01-30T08:37:06;97820.09;;;3.54
15170;BMP280;7685;47.406;8.540;2024-01-30T08:39:33;97819.88;;;3.58
15170;BMP280;7685;47.406;8.540;2024-01-30T08:41:59;97815.59;;;3.61
15170;BMP280;7685;47.406;8.540;2024-01-30T08:44:26;97818.00;;;3.64
15170;BMP280;7685;47.406;8.540;2024-01-30T08:46:53;97815.38;;;3.64
15170;BMP280;7685;47.406;8.540;2024-01-30T08:49:24;97806.31;;;3.65
15170;BMP280;7685;47.406;8.540;2024-01-30T08:51:51;97813.78;;;3.72
15170;BMP280;7685;47.406;8.540;2024-01-30T08:54:17;97803.97;;;3.73
15170;BMP280;7685;47.406;8.540;2024-01-30T08:56:43;97811.41;;;3.80
15170;BMP280;7685;47.406;8.540;2024-01-30T08:59:10;97818.16;;;3.87
15170;BMP280;7685;47.406;8.540;2024-01-30T09:01:39;97818.19;;;3.92
15170;BMP280;7685;47.406;8.540;2024-01-30T09:04:12;97812.25;;;3.97
15170;BMP280;7685;47.406;8.540;2024-01-30T09:06:38;97823.25;;;4.01
15170;BMP280;7685;47.406;8.540;2024-01-30T09:09:06;97816.56;;;4.06
15170;BMP280;7685;47.406;8.540;2024-01-30T09:11:35;97818.53;;;4.11
15170;BMP280;7685;47.406;8.540;2024-01-30T09:14:01;97816.38;;;4.15
15170;BMP280;7685;47.406;8.540;2024-01-30T09:16:29;97819.03;;;4.21
15170;BMP280;7685;47.406;8.540;2024-01-30T09:18:56;97807.81;;;4.26
15170;BMP280;7685;47.406;8.540;2024-01-30T09:21:22;97815.03;;;4.31
15170;BMP280;7685;47.406;8.540;2024-01-30T09:23:49;97822.94;;;4.37
15170;BMP280;7685;47.406;8.540;2024-01-30T09:26:16;97811.22;;;4.43
15170;BMP280;7685;47.406;8.540;2024-01-30T09:28:42;97814.59;;;4.49
15170;BMP280;7685;47.406;8.540;2024-01-30T09:31:10;97818.22;;;4.58
15170;BMP280;7685;47.406;8.540;2024-01-30T09:33:37;97817.72;;;4.65
15170;BMP280;7685;47.406;8.540;2024-01-30T09:36:04;97823.50;;;4.74
15170;BMP280;7685;47.406;8.540;2024-01-30T09:38:32;97833.81;;;4.84
15170;BMP280;7685;47.406;8.540;2024-01-30T09:41:03;97824.50;;;4.94
15170;BMP280;7685;47.406;8.540;2024-01-30T09:43:33;97826.19;;;5.02
15170;BMP280;7685;47.406;8.540;2024-01-30T09:46:02;97823.34;;;5.12
15170;BMP280;7685;47.406;8.540;2024-01-30T09:48:30;97825.72;;;5.21
15170;BMP280;7685;47.406;8.540;2024-01-30T09:50:57;97824.53;;;5.33
15170;BMP280;7685;47.406;8.540;2024-01-30T09:53:23;97821.16;;;5.44
15170;BMP280;7685;47.406;8.540;2024-01-30T09:55:50;97831.47;;;5.59
15170;BMP280;7685;47.406;8.540;2024-01-30T09:58:17;97826.88;;;5.70
15170;BMP280;7685;47.406;8.540;2024-01-30T10:00:44;97830.66;;;5.80
15170;BMP280;7685;47.406;8.540;2024-01-30T10:03:10;97829.44;;;5.93
15170;BMP280;7685;47.406;8.540;2024-01-30T10:05:38;97832.78;;;6.04
15170;BMP280;7685;47.406;8.540;2024-01-30T10:08:06;97831.56;;;6.11
15170;BMP280;7685;47.406;8.540;2024-01-30T10:10:34;97838.50;;;6.20
15170;BMP280;7685;47.406;8.540;2024-01-30T10:13:02;97838.69;;;6.27
15170;BMP280;7685;47.406;8.540;2024-01-30T10:15:31;97835.31;;;6.33
15170;BMP280;7685;47.406;8.540;2024-01-30T10:17:57;97838.63;;;6.39
15170;BMP280;7685;47.406;8.540;2024-01-30T10:20:25;97840.28;;;6.47
15170;BMP280;7685;47.406;8.540;2024-01-30T10:22:54;97827.25;;;6.55
15170;BMP280;7685;47.406;8.540;2024-01-30T10:25:21;97828.41;;;6.65
15170;BMP280;7685;47.406;8.540;2024-01-30T10:27:52;97829.53;;;6.75
15170;BMP280;7685;47.406;8.540;2024-01-30T10:30:21;97814.13;;;6.85
15170;BMP280;7685;47.406;8.540;2024-01-30T10:32:48;97811.13;;;7.00
15170;BMP280;7685;47.406;8.540;2024-01-30T10:35:15;97817.97;;;7.14
15170;BMP280;7685;47.406;8.540;2024-01-30T10:37:49;97814.50;;;7.25
15170;BMP280;7685;47.406;8.540;2024-01-30T10:40:15;97814.44;;;7.36
15170;BMP280;7685;47.406;8.540;2024-01-30T10:42:44;97813.38;;;7.45
15170;BMP280;7685;47.406;8.540;2024-01-30T10:45:14;97810.41;;;7.54
15170;BMP280;7685;47.406;8.540;2024-01-30T10:47:49;97807.66;;;7.65
15170;BMP280;7685;47.406;8.540;2024-01-30T10:50:16;97802.00;;;7.74
15170;BMP280;7685;47.406;8.540;2024-01-30T10:52:43;97795.16;;;7.85
15170;BMP280;7685;47.406;8.540;2024-01-30T10:55:10;97795.25;;;7.98
15170;BMP280;7685;47.406;8.540;2024-01-30T10:57:37;97789.81;;;8.09
15170;BMP280;7685;47.406;8.540;2024-01-30T11:00:09;97792.53;;;8.22
15170;BMP280;7685;47.406;8.540;2024-01-30T11:02:42;97796.75;;;8.31
15170;BMP280;7685;47.406;8.540;2024-01-30T11:05:10;97783.47;;;8.37
15170;BMP280;7685;47.406;8.540;2024-01-30T11:07:39;97783.84;;;8.41
15170;BMP280;7685;47.406;8.540;2024-01-30T11:10:06;97785.72;;;8.46
15170;BMP280;7685;47.406;8.540;2024-01-30T11:12:39;97782.97;;;8.51
15170;BMP280;7685;47.406;8.540;2024-01-30T11:15:13;97787.91;;;8.61
15170;BMP280;7685;47.406;8.540;2024-01-30T11:20:19;97780.94;;;8.76
15170;BMP280;7685;47.406;8.540;2024-01-30T11:22:46;97777.19;;;8.85
15170;BMP280;7685;47.406;8.540;2024-01-30T11:25:14;97772.69;;;8.93
15170;BMP280;7685;47.406;8.540;2024-01-30T11:27:42;97776.41;;;9.03
15170;BMP280;7685;47.406;8.540;2024-01-30T11:30:08;97770.81;;;9.07
15170;BMP280;7685;47.406;8.540;2024-01-30T11:32:35;97768.03;;;9.13
15170;BMP280;7685;47.406;8.540;2024-01-30T11:35:03;97766.50;;;9.17
15170;BMP280;7685;47.406;8.540;2024-01-30T11:37:32;97770.78;;;9.20
15170;BMP280;7685;47.406;8.540;2024-01-30T11:40:02;97768.56;;;9.24
15170;BMP280;7685;47.406;8.540;2024-01-30T11:42:30;97767.72;;;9.29
15170;BMP280;7685;47.406;8.540;2024-01-30T11:44:56;97762.63;;;9.31
15170;BMP280;7685;47.406;8.540;2024-01-30T11:47:23;97758.75;;;9.32
15170;BMP280;7685;47.406;8.540;2024-01-30T11:49:50;97755.38;;;9.32
15170;BMP280;7685;47.406;8.540;2024-01-30T11:52:17;97757.44;;;9.39
15170;BMP280;7685;47.406;8.540;2024-01-30T11:54:44;97753.44;;;9.46
15170;BMP280;7685;47.406;8.540;2024-01-30T11:57:10;97762.19;;;9.54
15170;BMP280;7685;47.406;8.540;2024-01-30T11:59:37;97755.06;;;9.62
15170;BMP280;7685;47.406;8.540;2024-01-30T12:02:03;97756.38;;;9.69
15170;BMP280;7685;47.406;8.540;2024-01-30T12:04:30;97752.56;;;9.77
15170;BMP280;7685;47.406;8.540;2024-01-30T12:06:57;97754.59;;;9.84
15170;BMP280;7685;47.406;8.540;2024-01-30T12:09:25;97756.69;;;9.99
15170;BMP280;7685;47.406;8.540;2024-01-30T12:11:53;97752.06;;;10.13
15170;BMP280;7685;47.406;8.540;2024-01-30T12:14:22;97744.03;;;10.26
15170;BMP280;7685;47.406;8.540;2024-01-30T12:16:49;97737.09;;;10.44
15170;BMP280;7685;47.406;8.540;2024-01-30T12:19:24;97737.59;;;10.63
15170;BMP280;7685;47.406;8.540;2024-01-30T12:21:57;97735.41;;;10.83
15170;BMP280;7685;47.406;8.540;2024-01-30T12:24:27;97728.06;;;10.97
15170;BMP280;7685;47.406;8.540;2024-01-30T12:26:58;97730.09;;;11.11
15170;BMP280;7685;47.406;8.540;2024-01-30T12:29:25;97725.56;;;11.27
15170;BMP280;7685;47.406;8.540;2024-01-30T12:31:55;97722.25;;;11.42
15170;BMP280;7685;47.406;8.540;2024-01-30T12:34:21;97723.69;;;11.51
15170;BMP280;7685;47.406;8.540;2024-01-30T12:36:48;97725.84;;;11.60
15170;BMP280;7685;47.406;8.540;2024-01-30T12:39:15;97718.94;;;11.64
15170;BMP280;7685;47.406;8.540;2024-01-30T12:41:42;97720.50;;;11.67
15170;BMP280;7685;47.406;8.540;2024-01-30T12:44:08;97724.63;;;11.68
15170;BMP280;7685;47.406;8.540;2024-01-30T12:46:35;97734.38;;;11.66
15170;BMP280;7685;47.406;8.540;2024-01-30T12:49:01;97722.50;;;11.67
15170;BMP280;7685;47.406;8.540;2024-01-30T12:51:28;97725.19;;;11.75
15170;BMP280;7685;47.406;8.540;2024-01-30T12:53:54;97722.38;;;11.88
15170;BMP280;7685;47.406;8.540;2024-01-30T12:56:23;97724.16;;;12.01
15170;BMP280;7685;47.406;8.540;2024-01-30T12:58:49;97721.47;;;12.16
15170;BMP280;7685;47.406;8.540;2024-01-30T13:01:20;97727.03;;;12.26
15170;BMP280;7685;47.406;8.540;2024-01-30T13:03:46;97731.78;;;12.35
15170;BMP280;7685;47.406;8.540;2024-01-30T13:06:13;97721.31;;;12.44
15170;BMP280;7685;47.406;8.540;2024-01-30T13:08:39;97724.31;;;12.56
15170;BMP280;7685;47.406;8.540;2024-01-30T13:11:06;97728.41;;;12.65
15170;BMP280;7685;47.406;8.540;2024-01-30T13:13:42;97725.91;;;12.74
15170;BMP280;7685;47.406;8.540;2024-01-30T13:16:09;97718.03;;;12.84
15170;BMP280;7685;47.406;8.540;2024-01-30T13:18:35;97720.50;;;12.90
15170;BMP280;7685;47.406;8.540;2024-01-30T13:21:02;97715.91;;;12.90
15170;BMP280;7685;47.406;8.540;2024-01-30T13:23:29;97714.97;;;12.95
15170;BMP280;7685;47.406;8.540;2024-01-30T13:25:55;97716.75;;;13.00
15170;BMP280;7685;47.406;8.540;2024-01-30T13:28:24;97707.66;;;13.03
15170;BMP280;7685;47.406;8.540;2024-01-30T13:30:52;97713.34;;;13.08
15170;BMP280;7685;47.406;8.540;2024-01-30T13:33:18;97718.31;;;13.11
15170;BMP280;7685;47.406;8.540;2024-01-30T13:35:45;97720.78;;;13.17
15170;BMP280;7685;47.406;8.540;2024-01-30T13:38:11;97715.59;;;13.19
15170;BMP280;7685;47.406;8.540;2024-01-30T13:40:38;97719.31;;;13.23
15170;BMP280;7685;47.406;8.540;2024-01-30T13:43:04;97713.03;;;13.36
15170;BMP280;7685;47.406;8.540;2024-01-30T13:45:30;97711.53;;;13.50
15170;BMP280;7685;47.406;8.540;2024-01-30T13:47:57;97716.47;;;13.62
15170;BMP280;7685;47.406;8.540;2024-01-30T13:50:24;97714.84;;;13.66
15170;BMP280;7685;47.406;8.540;2024-01-30T13:52:52;97711.78;;;13.70
15170;BMP280;7685;47.406;8.540;2024-01-30T13:55:18;97719.03;;;13.77
15170;BMP280;7685;47.406;8.540;2024-01-30T13:57:46;97716.19;;;13.75
15170;BMP280;7685;47.406;8.540;2024-01-30T14:00:16;97718.38;;;13.69
15170;BMP280;7685;47.406;8.540;2024-01-30T14:02:43;97722.13;;;13.66
15170;BMP280;7685;47.406;8.540;2024-01-30T14:05:09;97718.25;;;13.59
15170;BMP280;7685;47.406;8.540;2024-01-30T14:07:37;97726.97;;;13.59
15170;BMP280;7685;47.406;8.540;2024-01-30T14:10:04;97719.19;;;13.54
15170;BMP280;7685;47.406;8.540;2024-01-30T14:12:36;97729.00;;;13.51
15170;BMP280;7685;47.406;8.540;2024-01-30T14:15:03;97727.78;;;13.45
15170;BMP280;7685;47.406;8.540;2024-01-30T14:17:44;97734.41;;;13.36
15170;BMP280;7685;47.406;8.540;2024-01-30T14:20:11;97734.06;;;13.32
15170;BMP280;7685;47.406;8.540;2024-01-30T14:22:38;97733.72;;;13.28
15170;BMP280;7685;47.406;8.540;2024-01-30T14:25:04;97737.66;;;13.27
15170;BMP280;7685;47.406;8.540;2024-01-30T14:27:31;97740.13;;;13.25
15170;BMP280;7685;47.406;8.540;2024-01-30T14:29:58;97735.72;;;13.20
15170;BMP280;7685;47.406;8.540;2024-01-30T14:32:24;97741.06;;;13.20